Time;durP1;ratioP1;P1;durP2;ratioP2;P2;SDS_P1;SDS_P2;PMS_P1;PMS_P2;Temp;Humidity;BMP_temperature;BMP_pressure;BME280_temperature;BME280_humidity;BME280_pressure;Samples;Min_cycle;Max_cycle;Signal;HPM_P1;HPM_P2
2023/08/26 00:01:57;;;;;;;8.45;4.65;;;;;;;;;;5023988;28;20396;-74
2023/08/26 00:04:42;;;;;;;11.27;4.82;;;;;;;;;;5024949;28;20037;-76
2023/08/26 00:07:27;;;;;;;6.68;3.95;;;;;;;;;;5033297;28;20115;-76
2023/08/26 00:10:13;;;;;;;8.93;4.85;;;;;;;;;;5047191;28;20036;-76
2023/08/26 00:12:58;;;;;;;5.70;4.00;;;;;;;;;;5028907;28;20033;-75
2023/08/26 00:15:43;;;;;;;6.57;4.10;;;;;;;;;;5047063;28;20048;-74
2023/08/26 00:18:28;;;;;;;6.25;4.35;;;;;;;;;;5040778;28;20044;-76
2023/08/26 00:21:14;;;;;;;6.07;4.32;;;;;;;;;;5031971;28;20519;-72
2023/08/26 00:24:00;;;;;;;7.75;4.05;;;;;;;;;;5020282;28;20048;-77
2023/08/26 00:26:45;;;;;;;8.20;4.10;;;;;;;;;;5046710;28;20032;-77
2023/08/26 00:29:30;;;;;;;8.38;3.85;;;;;;;;;;5047543;28;20037;-76
2023/08/26 00:32:15;;;;;;;6.85;4.68;;;;;;;;;;5020369;28;20468;-75
2023/08/26 00:35:01;;;;;;;6.93;4.00;;;;;;;;;;5035864;28;20121;-77
2023/08/26 00:37:46;;;;;;;7.97;4.13;;;;;;;;;;5033871;28;20252;-77
2023/08/26 00:40:35;;;;;;;8.45;3.75;;;;;;;;;;5033124;28;20028;-72
2023/08/26 00:43:20;;;;;;;10.77;4.35;;;;;;;;;;5033549;28;20064;-67
2023/08/26 00:46:05;;;;;;;7.97;4.18;;;;;;;;;;5036521;28;20385;-68
2023/08/26 00:48:51;;;;;;;7.05;3.72;;;;;;;;;;5049723;28;20029;-68
2023/08/26 00:51:37;;;;;;;13.10;4.55;;;;;;;;;;5029600;28;20179;-69
2023/08/26 00:54:22;;;;;;;8.25;4.00;;;;;;;;;;5036903;28;20356;-69
2023/08/26 00:57:08;;;;;;;10.70;4.45;;;;;;;;;;5050886;28;20121;-68
2023/08/26 00:59:54;;;;;;;9.80;4.28;;;;;;;;;;5045233;28;20107;-71
2023/08/26 01:02:39;;;;;;;8.32;3.90;;;;;;;;;;5037470;28;20432;-68
2023/08/26 01:05:24;;;;;;;7.93;4.30;;;;;;;;;;5052441;28;20040;-68
2023/08/26 01:08:09;;;;;;;8.88;4.10;;;;;;;;;;5051997;28;20029;-68
2023/08/26 01:11:13;;;;;;;9.00;3.90;;;;;;;;;;5040330;28;20029;-67
2023/08/26 01:14:06;;;;;;;6.22;3.60;;;;;;;;;;5047818;28;20377;-69
2023/08/26 01:16:51;;;;;;;7.32;3.10;;;;;;;;;;5039453;28;20025;-67
2023/08/26 01:19:38;;;;;;;5.57;3.30;;;;;;;;;;5034849;28;20065;-76
2023/08/26 01:22:25;;;;;;;9.20;3.60;;;;;;;;;;5051281;28;20561;-75
2023/08/26 01:25:10;;;;;;;6.07;3.42;;;;;;;;;;5018704;28;20136;-75
2023/08/26 01:27:57;;;;;;;7.05;3.38;;;;;;;;;;5034824;28;20704;-77
2023/08/26 01:30:43;;;;;;;9.30;3.20;;;;;;;;;;5034769;28;20087;-76
2023/08/26 01:33:31;;;;;;;5.28;3.15;;;;;;;;;;5043334;28;20060;-76
2023/08/26 01:36:19;;;;;;;7.07;2.60;;;;;;;;;;5055111;28;20456;-75
2023/08/26 01:39:04;;;;;;;7.05;3.58;;;;;;;;;;5055706;28;20043;-72
2023/08/26 01:41:50;;;;;;;6.35;3.20;;;;;;;;;;5036949;28;20032;-72
2023/08/26 01:44:36;;;;;;;9.38;3.30;;;;;;;;;;5053795;28;20029;-72
2023/08/26 01:47:21;;;;;;;7.15;3.03;;;;;;;;;;5045530;28;20043;-73
2023/08/26 01:50:06;;;;;;;6.97;2.92;;;;;;;;;;5046836;28;20495;-72
2023/08/26 01:52:51;;;;;;;8.73;3.30;;;;;;;;;;5032789;28;20140;-77
2023/08/26 01:55:37;;;;;;;7.68;3.13;;;;;;;;;;5046556;28;20027;-67
2023/08/26 01:58:22;;;;;;;4.82;2.60;;;;;;;;;;5053659;28;20471;-71
2023/08/26 02:01:07;;;;;;;5.13;2.78;;;;;;;;;;5051122;28;20033;-71
2023/08/26 02:03:52;;;;;;;6.80;3.05;;;;;;;;;;5043245;28;20051;-72
2023/08/26 02:06:40;;;;;;;4.47;2.72;;;;;;;;;;5049698;28;20124;-73
2023/08/26 02:09:25;;;;;;;3.97;2.33;;;;;;;;;;5053847;28;20529;-72
2023/08/26 02:12:10;;;;;;;7.32;2.75;;;;;;;;;;5037464;28;20104;-77
2023/08/26 02:14:55;;;;;;;5.65;3.25;;;;;;;;;;5049801;28;20031;-74
2023/08/26 02:17:41;;;;;;;6.03;2.90;;;;;;;;;;5019812;28;20607;-76
2023/08/26 02:20:26;;;;;;;3.53;2.30;;;;;;;;;;5044476;28;20041;-75
2023/08/26 02:23:11;;;;;;;5.53;2.65;;;;;;;;;;5055204;28;20123;-76
2023/08/26 02:25:56;;;;;;;5.40;3.05;;;;;;;;;;5044307;28;20067;-74
2023/08/26 02:28:42;;;;;;;6.80;2.92;;;;;;;;;;5037655;28;20036;-76
2023/08/26 02:31:27;;;;;;;6.82;2.38;;;;;;;;;;5047020;28;20084;-75
2023/08/26 02:34:12;;;;;;;5.13;2.63;;;;;;;;;;5038387;28;20064;-78
2023/08/26 02:36:58;;;;;;;6.55;2.60;;;;;;;;;;5047257;28;20097;-77
2023/08/26 02:39:43;;;;;;;8.45;2.10;;;;;;;;;;5054119;28;20060;-78
2023/08/26 02:42:29;;;;;;;6.00;2.47;;;;;;;;;;5049891;28;20094;-76
2023/08/26 02:45:14;;;;;;;7.55;2.63;;;;;;;;;;5048728;28;20045;-77
2023/08/26 02:48:00;;;;;;;6.50;3.03;;;;;;;;;;5040721;28;20441;-77
2023/08/26 02:50:45;;;;;;;8.43;3.08;;;;;;;;;;5044310;28;20036;-67
2023/08/26 02:53:30;;;;;;;5.22;2.45;;;;;;;;;;5035791;28;20506;-74
2023/08/26 02:56:16;;;;;;;3.80;2.45;;;;;;;;;;5035280;28;20343;-72
2023/08/26 02:59:01;;;;;;;6.30;2.83;;;;;;;;;;5053733;28;20028;-73
2023/08/26 03:01:47;;;;;;;4.50;2.30;;;;;;;;;;5047523;28;20041;-73
2023/08/26 03:04:32;;;;;;;6.78;3.00;;;;;;;;;;5053848;28;20502;-74
2023/08/26 03:07:17;;;;;;;3.53;2.58;;;;;;;;;;5052565;28;20060;-75
2023/08/26 03:10:03;;;;;;;6.13;2.45;;;;;;;;;;5040141;28;20119;-69
2023/08/26 03:12:48;;;;;;;8.02;3.05;;;;;;;;;;5043901;28;20033;-69
2023/08/26 03:15:33;;;;;;;3.85;2.45;;;;;;;;;;5050791;28;20042;-68
2023/08/26 03:18:18;;;;;;;7.15;2.90;;;;;;;;;;5039151;28;20048;-68
2023/08/26 03:21:04;;;;;;;5.90;2.90;;;;;;;;;;5041347;28;20041;-69
2023/08/26 03:23:50;;;;;;;5.63;2.50;;;;;;;;;;5044901;28;20487;-69
2023/08/26 03:26:35;;;;;;;3.50;2.35;;;;;;;;;;5044356;28;20051;-69
2023/08/26 03:29:20;;;;;;;4.25;2.28;;;;;;;;;;5042396;28;20024;-73
2023/08/26 03:32:05;;;;;;;6.80;2.33;;;;;;;;;;5037869;28;20041;-72
2023/08/26 03:34:51;;;;;;;5.68;2.22;;;;;;;;;;5043446;28;20040;-72
2023/08/26 03:37:37;;;;;;;10.68;3.50;;;;;;;;;;5049251;28;20074;-71
2023/08/26 03:40:22;;;;;;;5.20;2.67;;;;;;;;;;5049885;28;20090;-71
2023/08/26 03:43:08;;;;;;;3.83;2.47;;;;;;;;;;5028572;28;20032;-71
2023/08/26 03:45:53;;;;;;;4.28;2.40;;;;;;;;;;5044371;28;20029;-68
2023/08/26 03:48:38;;;;;;;9.05;2.90;;;;;;;;;;5051110;28;20029;-75
2023/08/26 03:51:23;;;;;;;4.82;2.55;;;;;;;;;;5040650;28;20044;-75
2023/08/26 03:54:09;;;;;;;4.28;2.85;;;;;;;;;;5033635;28;20025;-75
2023/08/26 03:56:54;;;;;;;5.65;2.13;;;;;;;;;;5041853;28;20040;-76
2023/08/26 03:59:39;;;;;;;5.78;2.40;;;;;;;;;;5036056;28;20102;-75
2023/08/26 04:02:24;;;;;;;5.10;2.60;;;;;;;;;;5040093;28;20037;-77
2023/08/26 04:05:12;;;;;;;3.40;2.75;;;;;;;;;;5039818;28;20045;-76
2023/08/26 04:07:58;;;;;;;5.03;2.58;;;;;;;;;;5058974;28;20048;-75
2023/08/26 04:10:43;;;;;;;3.17;2.63;;;;;;;;;;5048370;28;20056;-76
2023/08/26 04:13:29;;;;;;;4.90;2.90;;;;;;;;;;5047925;28;20257;-75
2023/08/26 04:16:15;;;;;;;5.57;2.75;;;;;;;;;;5041680;28;20442;-76
2023/08/26 04:19:00;;;;;;;5.13;3.40;;;;;;;;;;5032882;28;20031;-76
2023/08/26 04:21:46;;;;;;;3.92;2.28;;;;;;;;;;5036935;28;20439;-73
2023/08/26 04:24:31;;;;;;;4.15;2.83;;;;;;;;;;5047956;28;20032;-73
2023/08/26 04:27:16;;;;;;;7.38;2.75;;;;;;;;;;5056507;28;20036;-73
2023/08/26 04:30:02;;;;;;;5.13;2.85;;;;;;;;;;5045860;28;20487;-71
2023/08/26 04:32:48;;;;;;;3.92;2.50;;;;;;;;;;5040870;28;20487;-72
2023/08/26 04:35:33;;;;;;;3.55;2.30;;;;;;;;;;5050432;28;20037;-72
2023/08/26 04:38:18;;;;;;;6.32;2.60;;;;;;;;;;5043338;28;20039;-73
2023/08/26 04:41:03;;;;;;;6.55;2.35;;;;;;;;;;5053524;28;20064;-68
2023/08/26 04:43:49;;;;;;;6.68;3.00;;;;;;;;;;5057067;28;20064;-68
2023/08/26 04:46:34;;;;;;;5.03;3.45;;;;;;;;;;5045767;28;20055;-67
2023/08/26 04:49:20;;;;;;;4.97;3.00;;;;;;;;;;5046411;28;20043;-66
2023/08/26 04:52:05;;;;;;;7.47;2.97;;;;;;;;;;5053604;28;20134;-67
2023/08/26 04:54:50;;;;;;;7.88;3.60;;;;;;;;;;5056654;28;20051;-67
2023/08/26 04:57:35;;;;;;;5.65;3.17;;;;;;;;;;5051364;28;20060;-71
2023/08/26 05:00:21;;;;;;;5.93;3.05;;;;;;;;;;5051033;28;20047;-76
2023/08/26 05:03:06;;;;;;;7.90;3.33;;;;;;;;;;5050244;28;20088;-78
2023/08/26 05:05:51;;;;;;;6.78;3.28;;;;;;;;;;5050934;28;20072;-75
2023/08/26 05:08:37;;;;;;;5.65;3.22;;;;;;;;;;5050377;28;20040;-75
2023/08/26 05:11:22;;;;;;;12.77;3.15;;;;;;;;;;5047496;28;20032;-77
2023/08/26 05:14:07;;;;;;;12.27;3.72;;;;;;;;;;5038381;28;20037;-78
2023/08/26 05:16:52;;;;;;;9.10;3.80;;;;;;;;;;5054890;28;20472;-77
2023/08/26 05:19:38;;;;;;;7.13;3.90;;;;;;;;;;5035942;28;20040;-74
2023/08/26 05:22:23;;;;;;;8.20;3.92;;;;;;;;;;5043541;28;20429;-73
2023/08/26 05:25:08;;;;;;;7.30;3.47;;;;;;;;;;5055121;28;20183;-73
2023/08/26 05:27:53;;;;;;;10.23;3.60;;;;;;;;;;5047890;28;20400;-73
2023/08/26 05:30:39;;;;;;;8.05;3.67;;;;;;;;;;5031069;28;20029;-74
2023/08/26 05:33:24;;;;;;;8.25;4.00;;;;;;;;;;5039526;28;20041;-73
2023/08/26 05:36:09;;;;;;;9.50;3.97;;;;;;;;;;5049736;28;20040;-73
2023/08/26 05:38:54;;;;;;;10.15;3.90;;;;;;;;;;5049307;28;20467;-75
2023/08/26 05:41:39;;;;;;;6.10;2.90;;;;;;;;;;5048862;28;20612;-75
2023/08/26 05:44:25;;;;;;;7.20;2.97;;;;;;;;;;5048731;28;20039;-76
2023/08/26 05:47:10;;;;;;;10.30;3.70;;;;;;;;;;5049551;28;20044;-76
2023/08/26 05:49:58;;;;;;;7.28;3.75;;;;;;;;;;5049886;28;20353;-76
2023/08/26 05:52:44;;;;;;;10.68;3.50;;;;;;;;;;5049156;28;20123;-75
2023/08/26 05:55:29;;;;;;;8.55;3.58;;;;;;;;;;5050169;28;20068;-76
2023/08/26 05:58:15;;;;;;;4.85;2.97;;;;;;;;;;5025622;28;20341;-77
2023/08/26 06:01:00;;;;;;;8.25;3.63;;;;;;;;;;5040202;28;20093;-78
2023/08/26 06:03:45;;;;;;;7.80;3.33;;;;;;;;;;5068188;28;20032;-77
2023/08/26 06:06:30;;;;;;;7.20;3.35;;;;;;;;;;5049834;28;20029;-76
2023/08/26 06:09:16;;;;;;;8.55;3.83;;;;;;;;;;5012670;28;20638;-77
2023/08/26 06:12:01;;;;;;;7.07;3.58;;;;;;;;;;5040622;28;20067;-76
2023/08/26 06:14:46;;;;;;;6.70;3.10;;;;;;;;;;5026883;28;20376;-75
2023/08/26 06:17:34;;;;;;;7.80;3.45;;;;;;;;;;5045361;28;20032;-76
2023/08/26 06:20:19;;;;;;;8.27;2.85;;;;;;;;;;5036717;28;20033;-77
2023/08/26 06:23:04;;;;;;;7.22;3.00;;;;;;;;;;5047510;28;20036;-77
2023/08/26 06:25:53;;;;;;;10.32;3.67;;;;;;;;;;5053677;28;20588;-76
2023/08/26 06:28:38;;;;;;;;;;;;;;;;;;5037549;28;20047;-76
2023/08/26 06:31:24;;;;;;;5.78;3.13;;;;;;;;;;5039669;28;19912;-78
2023/08/26 06:34:09;;;;;;;5.88;4.05;;;;;;;;;;5052404;28;20037;-70
2023/08/26 06:36:54;;;;;;;7.22;3.47;;;;;;;;;;5034234;28;20472;-68
2023/08/26 06:39:39;;;;;;;8.25;3.95;;;;;;;;;;5042331;28;20063;-70
2023/08/26 06:42:25;;;;;;;8.77;3.50;;;;;;;;;;5042176;28;20480;-69
2023/08/26 06:45:10;;;;;;;7.65;3.75;;;;;;;;;;5042137;28;20029;-70
2023/08/26 06:47:55;;;;;;;7.35;3.70;;;;;;;;;;5043145;28;20422;-80
2023/08/26 06:50:41;;;;;;;6.03;2.97;;;;;;;;;;5045038;28;20075;-79
2023/08/26 06:53:27;;;;;;;7.15;4.30;;;;;;;;;;5039818;28;20475;-79
2023/08/26 06:56:12;;;;;;;4.75;2.92;;;;;;;;;;5050138;28;20040;-79
2023/08/26 06:58:57;;;;;;;7.22;3.05;;;;;;;;;;5033679;28;20033;-78
2023/08/26 07:01:44;;;;;;;6.15;3.38;;;;;;;;;;5036328;28;21098;-79
2023/08/26 07:04:29;;;;;;;8.48;3.65;;;;;;;;;;5054152;28;20032;-79
2023/08/26 07:07:14;;;;;;;7.05;3.08;;;;;;;;;;5045192;28;20040;-69
2023/08/26 07:09:59;;;;;;;6.20;3.08;;;;;;;;;;5047730;28;20040;-69
2023/08/26 07:12:45;;;;;;;9.25;3.97;;;;;;;;;;5034754;28;20063;-71
2023/08/26 07:15:30;;;;;;;19.00;5.07;;;;;;;;;;5040532;28;20028;-69
2023/08/26 07:18:15;;;;;;;10.52;4.13;;;;;;;;;;5047124;28;20036;-69
2023/08/26 07:21:00;;;;;;;9.00;3.63;;;;;;;;;;5042997;28;20020;-69
2023/08/26 07:23:46;;;;;;;6.28;3.33;;;;;;;;;;5048012;28;20033;-70
2023/08/26 07:26:31;;;;;;;6.72;3.83;;;;;;;;;;5052884;28;20088;-72
2023/08/26 07:29:16;;;;;;;7.90;3.63;;;;;;;;;;5036337;28;20464;-76
2023/08/26 07:32:01;;;;;;;5.95;3.75;;;;;;;;;;5056137;28;20033;-78
2023/08/26 07:34:46;;;;;;;6.20;2.90;;;;;;;;;;5039196;28;20025;-76
2023/08/26 07:37:32;;;;;;;6.75;3.33;;;;;;;;;;5044322;28;20041;-79
2023/08/26 07:40:17;;;;;;;7.03;3.30;;;;;;;;;;5053124;28;20429;-78
2023/08/26 07:43:03;;;;;;;6.13;2.88;;;;;;;;;;5046693;28;20372;-76
2023/08/26 07:45:48;;;;;;;7.50;3.28;;;;;;;;;;5049720;28;20048;-68
2023/08/26 07:48:33;;;;;;;10.63;3.10;;;;;;;;;;5045760;28;20071;-70
2023/08/26 07:51:18;;;;;;;12.55;3.95;;;;;;;;;;5054899;28;20028;-69
2023/08/26 07:54:04;;;;;;;6.60;3.83;;;;;;;;;;5035199;28;20047;-67
2023/08/26 07:56:49;;;;;;;8.13;3.40;;;;;;;;;;5044776;28;20510;-69
2023/08/26 07:59:34;;;;;;;5.93;2.67;;;;;;;;;;5041981;28;20044;-69
2023/08/26 08:02:19;;;;;;;9.05;3.60;;;;;;;;;;5035635;28;20110;-77
2023/08/26 08:05:05;;;;;;;4.65;3.03;;;;;;;;;;5059844;28;20072;-76
2023/08/26 08:07:50;;;;;;;7.50;3.25;;;;;;;;;;5042369;28;20029;-78
2023/08/26 08:10:36;;;;;;;9.57;3.53;;;;;;;;;;5049582;28;20108;-78
2023/08/26 08:13:21;;;;;;;10.95;3.17;;;;;;;;;;5031194;28;20040;-77
2023/08/26 08:16:08;;;;;;;7.85;2.95;;;;;;;;;;5036314;28;20063;-77
2023/08/26 08:18:53;;;;;;;6.97;3.05;;;;;;;;;;5035488;28;20096;-77
2023/08/26 08:21:38;;;;;;;7.35;2.85;;;;;;;;;;5025629;28;20128;-70
2023/08/26 08:24:24;;;;;;;7.80;2.95;;;;;;;;;;4989643;28;20025;-68
2023/08/26 08:27:09;;;;;;;5.63;2.83;;;;;;;;;;5031372;28;20161;-71
2023/08/26 08:29:54;;;;;;;4.53;2.60;;;;;;;;;;5024336;28;20483;-71
2023/08/26 08:32:39;;;;;;;7.97;3.40;;;;;;;;;;5043465;28;20076;-70
2023/08/26 08:35:25;;;;;;;5.70;3.20;;;;;;;;;;5003414;28;20041;-69
2023/08/26 08:38:10;;;;;;;5.20;3.03;;;;;;;;;;5022006;28;20107;-69
2023/08/26 08:40:55;;;;;;;7.35;2.83;;;;;;;;;;5031030;28;20426;-68
2023/08/26 08:43:42;;;;;;;6.88;3.35;;;;;;;;;;5031286;28;20068;-70
2023/08/26 08:46:28;;;;;;;5.93;2.80;;;;;;;;;;5020035;28;20419;-68
2023/08/26 08:49:13;;;;;;;7.95;2.70;;;;;;;;;;5011726;28;20072;-69
2023/08/26 08:51:59;;;;;;;10.00;3.92;;;;;;;;;;5034772;28;20128;-69
2023/08/26 08:54:44;;;;;;;6.13;3.60;;;;;;;;;;5044281;28;20078;-69
2023/08/26 08:57:32;;;;;;;6.68;3.45;;;;;;;;;;5043128;28;20025;-78
2023/08/26 09:00:18;;;;;;;5.28;2.80;;;;;;;;;;5043286;28;20108;-74
2023/08/26 09:03:06;;;;;;;5.85;2.72;;;;;;;;;;5048412;28;20020;-74
2023/08/26 09:05:52;;;;;;;6.10;2.77;;;;;;;;;;5041120;28;20040;-72
2023/08/26 09:08:37;;;;;;;5.63;3.05;;;;;;;;;;5046611;28;20360;-72
2023/08/26 09:11:22;;;;;;;8.60;3.40;;;;;;;;;;5046516;28;20068;-72
2023/08/26 09:14:08;;;;;;;5.75;3.17;;;;;;;;;;5031892;28;20033;-72
2023/08/26 09:16:55;;;;;;;6.85;2.95;;;;;;;;;;5017888;28;20539;-68
2023/08/26 09:19:50;;;;;;;5.63;3.45;;;;;;;;;;5022678;28;20242;-69
2023/08/26 09:22:35;;;;;;;8.68;3.22;;;;;;;;;;5035262;28;20040;-70
2023/08/26 09:25:20;;;;;;;7.15;3.92;;;;;;;;;;5046906;28;20036;-68
2023/08/26 09:28:06;;;;;;;5.65;2.58;;;;;;;;;;5034914;28;20033;-69
2023/08/26 09:31:02;;;;;;;6.68;3.33;;;;;;;;;;5033177;28;20028;-67
2023/08/26 09:33:59;;;;;;;18.75;5.00;;;;;;;;;;5033556;28;20069;-75
2023/08/26 09:36:44;;;;;;;6.65;2.78;;;;;;;;;;5026069;28;20445;-70
2023/08/26 09:39:29;;;;;;;9.35;3.55;;;;;;;;;;5029319;28;20059;-70
2023/08/26 09:42:17;;;;;;;7.55;2.90;;;;;;;;;;5013945;28;20042;-71
2023/08/26 09:45:05;;;;;;;7.13;3.67;;;;;;;;;;5024244;28;20466;-74
2023/08/26 09:47:55;;;;;;;5.90;2.90;;;;;;;;;;5047056;28;20063;-73
2023/08/26 09:50:40;;;;;;;;;;;;;;;;;;5052579;28;20122;-71
2023/08/26 09:53:30;;;;;;;8.25;3.28;;;;;;;;;;5022272;28;19917;-72
2023/08/26 09:56:16;;;;;;;7.30;3.28;;;;;;;;;;5042492;28;20119;-71
2023/08/26 09:59:01;;;;;;;6.20;3.05;;;;;;;;;;5048037;28;20028;-71
2023/08/26 10:01:47;;;;;;;4.97;3.15;;;;;;;;;;5039800;28;20041;-72
2023/08/26 10:04:35;;;;;;;6.45;4.18;;;;;;;;;;5049222;28;20039;-71
2023/08/26 10:07:22;;;;;;;7.60;3.55;;;;;;;;;;5054189;28;20051;-71
2023/08/26 10:10:10;;;;;;;7.30;3.25;;;;;;;;;;5050243;28;20081;-78
2023/08/26 10:12:56;;;;;;;6.32;2.90;;;;;;;;;;5031648;28;20164;-72
2023/08/26 10:15:42;;;;;;;6.20;3.83;;;;;;;;;;5046246;28;20036;-69
2023/08/26 10:18:32;;;;;;;8.93;3.50;;;;;;;;;;5045392;28;20107;-73
2023/08/26 10:21:17;;;;;;;5.60;3.55;;;;;;;;;;5043587;28;20032;-71
2023/08/26 10:24:04;;;;;;;9.23;4.00;;;;;;;;;;5046220;28;20036;-71
2023/08/26 10:26:49;;;;;;;5.97;2.90;;;;;;;;;;5050877;28;20040;-71
2023/08/26 10:29:35;;;;;;;8.43;3.95;;;;;;;;;;5054965;28;20063;-72
2023/08/26 10:32:21;;;;;;;8.35;2.95;;;;;;;;;;5050861;28;20052;-80
2023/08/26 10:35:09;;;;;;;7.70;3.33;;;;;;;;;;5037867;28;20170;-77
2023/08/26 10:38:07;;;;;;;8.77;3.97;;;;;;;;;;5007086;28;20082;-78
2023/08/26 10:41:06;;;;;;;10.57;3.88;;;;;;;;;;5035626;28;20021;-80
2023/08/26 10:44:04;;;;;;;6.30;3.05;;;;;;;;;;5032790;28;20043;-80
2023/08/26 10:46:55;;;;;;;9.93;3.33;;;;;;;;;;5032133;28;20389;-76
2023/08/26 10:49:43;;;;;;;8.52;4.43;;;;;;;;;;5019610;28;20084;-77
2023/08/26 10:52:33;;;;;;;7.82;3.67;;;;;;;;;;5055011;28;20075;-78
2023/08/26 10:55:19;;;;;;;6.10;3.58;;;;;;;;;;5034252;28;20530;-77
2023/08/26 10:58:05;;;;;;;6.45;2.65;;;;;;;;;;5055836;28;20029;-78
2023/08/26 11:00:51;;;;;;;6.22;3.30;;;;;;;;;;4998482;28;20121;-78
2023/08/26 11:03:37;;;;;;;8.63;4.85;;;;;;;;;;5025528;28;20528;-78
2023/08/26 11:06:24;;;;;;;6.07;3.60;;;;;;;;;;5033994;28;20044;-78
2023/08/26 11:09:09;;;;;;;6.13;2.78;;;;;;;;;;5042461;28;20485;-72
2023/08/26 11:11:54;;;;;;;6.53;3.65;;;;;;;;;;5036229;28;20076;-71
2023/08/26 11:14:40;;;;;;;5.00;3.45;;;;;;;;;;5030302;28;20029;-72
2023/08/26 11:17:26;;;;;;;5.40;2.50;;;;;;;;;;5061114;28;20511;-71
2023/08/26 11:20:11;;;;;;;5.63;3.10;;;;;;;;;;5025104;28;20115;-72
2023/08/26 11:22:56;;;;;;;6.28;3.55;;;;;;;;;;5053341;28;20119;-72
2023/08/26 11:25:42;;;;;;;5.15;3.10;;;;;;;;;;5037435;28;20067;-73
2023/08/26 11:28:27;;;;;;;6.97;3.47;;;;;;;;;;5044099;28;20090;-77
2023/08/26 11:31:12;;;;;;;8.57;3.33;;;;;;;;;;5015883;28;20090;-77
2023/08/26 11:33:58;;;;;;;8.52;3.13;;;;;;;;;;5035864;28;20048;-78
2023/08/26 11:36:43;;;;;;;10.15;3.38;;;;;;;;;;5023835;28;20069;-78
2023/08/26 11:39:34;;;;;;;4.82;2.95;;;;;;;;;;5059185;28;20511;-76
2023/08/26 11:42:20;;;;;;;9.40;3.60;;;;;;;;;;5011962;28;20041;-79
2023/08/26 11:45:08;;;;;;;7.55;2.80;;;;;;;;;;5036296;28;20483;-77
2023/08/26 11:47:54;;;;;;;6.55;2.90;;;;;;;;;;5049783;28;20032;-80
2023/08/26 11:50:39;;;;;;;9.07;3.08;;;;;;;;;;5021697;28;20175;-78
2023/08/26 11:53:24;;;;;;;8.00;4.22;;;;;;;;;;5020486;28;20040;-79
2023/08/26 11:56:10;;;;;;;6.18;3.70;;;;;;;;;;5035144;28;20119;-79
2023/08/26 11:58:55;;;;;;;7.15;3.05;;;;;;;;;;5032809;28;20045;-78
2023/08/26 12:01:41;;;;;;;5.13;3.35;;;;;;;;;;5042638;28;20029;-74
2023/08/26 12:04:26;;;;;;;9.52;3.25;;;;;;;;;;5043597;28;20029;-69
2023/08/26 12:07:11;;;;;;;9.20;3.30;;;;;;;;;;5036759;28;20028;-72
2023/08/26 12:09:57;;;;;;;8.55;2.95;;;;;;;;;;5039057;28;20615;-68
2023/08/26 12:12:42;;;;;;;4.32;2.75;;;;;;;;;;5048666;28;20521;-71
2023/08/26 12:15:28;;;;;;;8.52;3.28;;;;;;;;;;5021904;28;20029;-68
2023/08/26 12:18:14;;;;;;;5.40;3.75;;;;;;;;;;5049753;28;20123;-69
2023/08/26 12:20:59;;;;;;;7.32;3.15;;;;;;;;;;5036936;28;20063;-76
2023/08/26 12:23:46;;;;;;;7.05;3.72;;;;;;;;;;5050624;28;20040;-72
2023/08/26 12:26:31;;;;;;;6.15;3.88;;;;;;;;;;5050046;28;20094;-70
2023/08/26 12:29:16;;;;;;;6.85;3.08;;;;;;;;;;5052239;28;20203;-70
2023/08/26 12:32:01;;;;;;;8.82;3.72;;;;;;;;;;5046376;28;20047;-72
2023/08/26 12:34:47;;;;;;;9.63;5.07;;;;;;;;;;5044162;28;20087;-70
2023/08/26 12:37:32;;;;;;;12.13;3.70;;;;;;;;;;5049872;28;20036;-77
2023/08/26 12:40:17;;;;;;;7.80;3.53;;;;;;;;;;5041206;28;20037;-80
2023/08/26 12:43:04;;;;;;;7.10;3.58;;;;;;;;;;5046182;28;20089;-78
2023/08/26 12:45:49;;;;;;;6.32;3.53;;;;;;;;;;5038108;28;20328;-77
2023/08/26 12:48:34;;;;;;;7.38;4.13;;;;;;;;;;5056398;28;20055;-80
2023/08/26 12:51:19;;;;;;;8.00;3.42;;;;;;;;;;5041064;28;20040;-77
2023/08/26 12:54:05;;;;;;;6.78;3.80;;;;;;;;;;5053026;28;20094;-77
2023/08/26 12:56:50;;;;;;;6.22;3.30;;;;;;;;;;5033263;28;20040;-73
2023/08/26 12:59:35;;;;;;;6.70;3.30;;;;;;;;;;5031342;28;20072;-67
2023/08/26 13:02:20;;;;;;;5.55;3.35;;;;;;;;;;5036008;28;20174;-67
2023/08/26 13:05:07;;;;;;;6.13;2.47;;;;;;;;;;5043530;28;20094;-68
2023/08/26 13:07:52;;;;;;;5.43;2.88;;;;;;;;;;5055827;28;20040;-68
2023/08/26 13:10:37;;;;;;;6.63;2.95;;;;;;;;;;5036956;28;20033;-70
2023/08/26 13:13:22;;;;;;;7.65;3.03;;;;;;;;;;5035955;28;20518;-67
2023/08/26 13:16:07;;;;;;;5.47;2.55;;;;;;;;;;5024755;28;20061;-66
2023/08/26 13:18:53;;;;;;;3.55;2.60;;;;;;;;;;5040751;28;20040;-69
2023/08/26 13:21:38;;;;;;;8.50;2.60;;;;;;;;;;5005501;28;20041;-70
2023/08/26 13:24:24;;;;;;;7.38;2.75;;;;;;;;;;5030261;28;20037;-70
2023/08/26 13:27:09;;;;;;;4.03;2.42;;;;;;;;;;5041923;28;20109;-70
2023/08/26 13:29:54;;;;;;;5.57;2.45;;;;;;;;;;5036667;28;20029;-70
2023/08/26 13:32:40;;;;;;;7.70;2.55;;;;;;;;;;5035805;28;20049;-67
2023/08/26 13:35:25;;;;;;;5.20;2.85;;;;;;;;;;5038862;28;20111;-71
2023/08/26 13:38:06;;;;;;;4.88;2.75;;;;;;;;;;5036803;28;20044;-71
2023/08/26 13:40:51;;;;;;;8.15;2.80;;;;;;;;;;5017817;28;20389;-70
2023/08/26 13:43:36;;;;;;;7.28;3.03;;;;;;;;;;5043054;28;20037;-71
2023/08/26 13:46:22;;;;;;;5.53;2.60;;;;;;;;;;5045966;28;20048;-72
2023/08/26 13:49:07;;;;;;;4.85;2.47;;;;;;;;;;5022399;28;20043;-71
2023/08/26 13:51:52;;;;;;;3.10;2.15;;;;;;;;;;5021142;28;20193;-70
2023/08/26 13:54:37;;;;;;;3.60;2.38;;;;;;;;;;5034846;28;20024;-70
2023/08/26 13:57:23;;;;;;;7.30;2.67;;;;;;;;;;5037884;28;20083;-71
2023/08/26 14:00:08;;;;;;;4.72;2.65;;;;;;;;;;5050062;28;20024;-70
2023/08/26 14:02:53;;;;;;;4.15;2.63;;;;;;;;;;5035643;28;20108;-71
2023/08/26 14:05:43;;;;;;;3.83;2.00;;;;;;;;;;5022122;28;20033;-73
2023/08/26 14:08:28;;;;;;;4.70;2.42;;;;;;;;;;5034692;28;20037;-70
2023/08/26 14:11:14;;;;;;;4.78;2.65;;;;;;;;;;5035133;28;20059;-70
2023/08/26 14:13:59;;;;;;;6.78;2.67;;;;;;;;;;5007086;28;20027;-67
2023/08/26 14:16:44;;;;;;;6.03;3.03;;;;;;;;;;5009310;28;20538;-67
2023/08/26 14:19:29;;;;;;;4.45;2.50;;;;;;;;;;5015186;28;20446;-67
2023/08/26 14:22:15;;;;;;;3.53;2.22;;;;;;;;;;5015390;28;20029;-66
2023/08/26 14:25:01;;;;;;;3.95;2.30;;;;;;;;;;5009173;28;20049;-67
2023/08/26 14:27:46;;;;;;;3.97;2.80;;;;;;;;;;5004070;28;20033;-65
2023/08/26 14:30:32;;;;;;;4.65;2.15;;;;;;;;;;5008809;28;20037;-78
2023/08/26 14:33:17;;;;;;;3.58;2.30;;;;;;;;;;5011845;28;20087;-68
2023/08/26 14:36:03;;;;;;;6.25;2.85;;;;;;;;;;5014636;28;20026;-66
2023/08/26 14:38:48;;;;;;;6.15;2.88;;;;;;;;;;5014929;28;20038;-68
2023/08/26 14:41:33;;;;;;;7.25;2.47;;;;;;;;;;5014263;28;20061;-68
2023/08/26 14:44:19;;;;;;;4.80;2.40;;;;;;;;;;5026016;28;20452;-68
2023/08/26 14:47:04;;;;;;;4.03;2.33;;;;;;;;;;5006441;28;20084;-78
2023/08/26 14:49:50;;;;;;;6.60;2.67;;;;;;;;;;5014544;28;20368;-71
2023/08/26 14:52:35;;;;;;;5.82;2.65;;;;;;;;;;5014626;28;20750;-72
2023/08/26 14:55:20;;;;;;;5.38;2.33;;;;;;;;;;5019765;28;20119;-71
2023/08/26 14:58:05;;;;;;;4.97;2.40;;;;;;;;;;5019745;28;20088;-70
2023/08/26 15:00:54;;;;;;;5.57;2.63;;;;;;;;;;5001052;28;20120;-71
2023/08/26 15:03:39;;;;;;;6.50;2.70;;;;;;;;;;5000107;28;20022;-72
2023/08/26 15:06:24;;;;;;;4.63;2.78;;;;;;;;;;5014690;28;20029;-71
2023/08/26 15:09:09;;;;;;;6.00;2.67;;;;;;;;;;5015150;28;20121;-66
2023/08/26 15:11:55;;;;;;;4.85;3.22;;;;;;;;;;5014227;28;20120;-68
2023/08/26 15:14:40;;;;;;;6.45;2.70;;;;;;;;;;5021148;28;20116;-67
2023/08/26 15:17:26;;;;;;;5.43;3.17;;;;;;;;;;5027812;28;20034;-67
2023/08/26 15:20:12;;;;;;;4.97;2.83;;;;;;;;;;5020093;28;20045;-68
2023/08/26 15:22:57;;;;;;;6.38;3.00;;;;;;;;;;5013465;28;20048;-68
2023/08/26 15:25:46;;;;;;;6.88;3.58;;;;;;;;;;5019970;28;20548;-75
2023/08/26 15:28:31;;;;;;;5.55;2.92;;;;;;;;;;5003747;28;20041;-66
2023/08/26 15:31:16;;;;;;;3.95;2.75;;;;;;;;;;5013604;28;20545;-67
2023/08/26 15:34:03;;;;;;;3.17;2.40;;;;;;;;;;5012226;28;20104;-69
2023/08/26 15:36:48;;;;;;;8.10;3.40;;;;;;;;;;5006193;28;20029;-65
2023/08/26 15:39:34;;;;;;;7.82;2.95;;;;;;;;;;5014521;28;20047;-65
2023/08/26 15:42:20;;;;;;;4.15;2.67;;;;;;;;;;5024136;28;20409;-70
2023/08/26 15:45:05;;;;;;;4.80;2.60;;;;;;;;;;5041101;23;20037;-71
2023/08/26 15:47:52;;;;;;;5.25;2.83;;;;;;;;;;5046360;28;20029;-70
2023/08/26 15:50:37;;;;;;;4.82;2.53;;;;;;;;;;5044656;28;20031;-68
2023/08/26 15:53:22;;;;;;;6.80;3.22;;;;;;;;;;5043218;28;20037;-69
2023/08/26 15:56:07;;;;;;;4.35;2.92;;;;;;;;;;5047173;28;20033;-69
2023/08/26 15:58:53;;;;;;;7.70;2.42;;;;;;;;;;5039911;28;20028;-70
2023/08/26 16:01:38;;;;;;;6.32;3.17;;;;;;;;;;5045202;28;20036;-69
2023/08/26 16:04:23;;;;;;;5.25;2.53;;;;;;;;;;5039011;28;20104;-69
2023/08/26 16:07:08;;;;;;;5.28;3.38;;;;;;;;;;5045837;28;20070;-69
2023/08/26 16:09:54;;;;;;;4.18;2.60;;;;;;;;;;5047006;28;20093;-69
2023/08/26 16:12:39;;;;;;;6.00;3.05;;;;;;;;;;5044136;28;20135;-70
2023/08/26 16:15:24;;;;;;;5.18;2.67;;;;;;;;;;5034811;28;20032;-71
2023/08/26 16:18:11;;;;;;;7.15;3.42;;;;;;;;;;5023685;28;20559;-71
2023/08/26 16:20:56;;;;;;;10.48;3.03;;;;;;;;;;5017085;28;20385;-71
2023/08/26 16:23:42;;;;;;;5.03;2.65;;;;;;;;;;5017907;28;20037;-65
2023/08/26 16:26:27;;;;;;;5.13;2.85;;;;;;;;;;5031499;28;20037;-65
2023/08/26 16:29:12;;;;;;;8.50;3.00;;;;;;;;;;5047131;28;20024;-66
2023/08/26 16:31:57;;;;;;;6.50;2.85;;;;;;;;;;5034656;28;20029;-64
2023/08/26 16:34:42;;;;;;;4.57;3.30;;;;;;;;;;5035439;28;20086;-66